West County, Missouri
Current Conditions -  °F | °C
As of 5:51 AM on Thursday 29 Jan 2015 (Local Time) from KSTL Reporting Station
Broken Clouds Broken Clouds  
Wind Chill: 39°   Ceiling: 2500
Heat Index: 46°   Visibility: 9mi
Dew Point: 36°   Wind: 18mph
Humidity: 68%   Direction: 300°WNW
Pressure: 29.89"   Gusts: 33mph
Location:  38.703°N, 90.4747°W
Report Text: KSTL 291151Z 30016G29KT 9SM BKN025 BKN035 08/02 A2989 RMK AO2 PK WND 31032/1128 PRESRR SLP125 T00780022 10122 20078 53041
Loading
Personal Weather Stations






























Interactive Weather Map New forecast layout! Learn more

10-Day Weather Forecast

Advertisements
Track Severe Weather on mobile